Time;durP1;ratioP1;P1;durP2;ratioP2;P2;SDS_P1;SDS_P2;PMS_P1;PMS_P2;Temp;Humidity;BMP_temperature;BMP_pressure;BME280_temperature;BME280_humidity;BME280_pressure;Samples;Min_cycle;Max_cycle;Signal;HPM_P1;HPM_P2
2023/05/14 00:00:49;;;;;;;9.90;7.95;;;;;;;14.59;79.67;101730.06;4882410;29;20064;-90
2023/05/14 00:03:14;;;;;;;9.30;7.80;;;;;;;14.55;80.37;101724.19;4897994;29;20095;-89
2023/05/14 00:05:40;;;;;;;12.32;7.93;;;;;;;14.61;80.34;101734.25;4898479;29;20033;-90
2023/05/14 00:08:13;;;;;;;12.63;7.67;;;;;;;14.53;80.75;101723.59;4881415;29;20525;-89
2023/05/14 00:10:38;;;;;;;13.85;8.20;;;;;;;14.62;80.60;101729.66;4881437;29;20362;-89
2023/05/14 00:13:11;;;;;;;10.17;8.07;;;;;;;14.61;81.09;101723.34;4897963;29;20091;-89
2023/05/14 00:15:37;;;;;;;11.13;7.82;;;;;;;14.63;81.19;101713.03;4866463;29;20045;-89
2023/05/14 00:18:04;;;;;;;9.80;7.70;;;;;;;14.64;81.42;101717.44;4881366;29;20036;-89
2023/05/14 00:20:40;;;;;;;12.30;8.23;;;;;;;14.61;82.13;101712.41;4865909;29;20084;-90
2023/05/14 00:23:07;;;;;;;10.70;8.27;;;;;;;14.65;82.61;101723.75;4853162;29;20032;-89
2023/05/14 00:25:33;;;;;;;12.95;8.70;;;;;;;14.63;81.92;101720.38;4884710;29;20481;-89
2023/05/14 00:28:04;;;;;;;12.63;8.77;;;;;;;14.57;81.51;101716.59;4869339;29;20039;-90
2023/05/14 00:30:34;;;;;;;11.05;8.18;;;;;;;14.52;81.56;101711.81;4884775;29;20390;-89
2023/05/14 00:33:03;;;;;;;12.98;9.30;;;;;;;14.41;81.91;101706.22;4884409;29;20045;-89
2023/05/14 00:35:32;;;;;;;12.63;8.97;;;;;;;14.34;82.80;101711.75;4884629;29;20394;-90
2023/05/14 00:37:58;;;;;;;14.63;9.10;;;;;;;14.26;83.50;101706.53;4884485;29;20123;-89
2023/05/14 00:40:26;;;;;;;12.20;9.20;;;;;;;14.17;83.82;101695.88;4884471;29;20176;-89
2023/05/14 00:42:54;;;;;;;13.30;9.63;;;;;;;14.05;84.74;101694.88;4884263;29;20048;-89
2023/05/14 00:45:20;;;;;;;12.60;8.70;;;;;;;14.01;85.25;101708.13;4884654;29;20112;-89
2023/05/14 00:48:00;;;;;;;10.00;8.93;;;;;;;13.92;85.39;101692.22;4900959;29;20069;-89
2023/05/14 00:54:10;;;;;;;14.45;9.55;;;;;;;13.78;86.35;101692.28;4862731;29;20045;-89
2023/05/14 00:57:12;;;;;;;15.10;9.43;;;;;;;13.77;85.98;101700.69;4846575;29;20041;-89
2023/05/14 00:59:43;;;;;;;12.57;9.32;;;;;;;13.62;87.59;101690.03;4862477;29;20051;-89
2023/05/14 01:06:14;;;;;;;13.63;10.40;;;;;;;13.58;87.13;101697.81;4900700;29;20088;-89
2023/05/14 01:12:39;;;;;;;12.93;10.02;;;;;;;13.48;90.04;101697.44;4900916;29;20059;-89
2023/05/14 01:15:19;;;;;;;12.43;10.07;;;;;;;13.35;89.59;101683.84;4901160;29;20036;-88
2023/05/14 01:17:54;;;;;;;18.57;11.17;;;;;;;13.30;90.14;101695.31;4877263;29;20068;-89
2023/05/14 01:20:20;;;;;;;14.63;10.70;;;;;;;13.25;90.84;101697.88;4901257;29;20060;-89
2023/05/14 01:22:46;;;;;;;18.60;11.15;;;;;;;13.13;91.50;101687.59;4868554;29;20483;-89
2023/05/14 01:26:02;;;;;;;13.80;11.37;;;;;;;13.20;90.80;101703.09;4869084;29;20135;-89
2023/05/14 01:28:35;;;;;;;16.38;10.98;;;;;;;13.05;92.62;101682.41;4883860;29;20385;-89
2023/05/14 01:31:11;;;;;;;18.48;11.70;;;;;;;13.01;93.60;101681.13;4884401;29;20468;-89
2023/05/14 01:33:40;;;;;;;18.27;12.65;;;;;;;13.08;94.33;101700.19;4883651;29;20035;-89
2023/05/14 01:36:06;;;;;;;18.10;11.98;;;;;;;12.96;94.19;101675.47;4883636;29;20040;-89
2023/05/14 01:38:32;;;;;;;20.03;12.23;;;;;;;12.89;94.93;101671.91;4883009;29;20031;-89
2023/05/14 01:41:03;;;;;;;20.23;12.15;;;;;;;12.86;95.57;101666.88;4899947;29;20037;-89
2023/05/14 01:43:30;;;;;;;19.85;13.02;;;;;;;12.90;95.65;101684.50;4900495;29;20040;-89
2023/05/14 01:45:58;;;;;;;17.08;12.30;;;;;;;12.76;95.94;101670.06;4884010;29;20037;-89
2023/05/14 01:48:25;;;;;;;16.07;11.83;;;;;;;12.74;97.04;101674.84;4883525;29;20469;-89
2023/05/14 01:50:51;;;;;;;17.05;12.25;;;;;;;12.78;97.21;101685.16;4882922;29;20036;-89
2023/05/14 01:53:17;;;;;;;19.80;13.10;;;;;;;12.77;97.04;101685.31;4867693;29;20043;-90
2023/05/14 01:55:49;;;;;;;17.83;13.00;;;;;;;12.71;96.87;101678.84;4883976;29;20039;-89
2023/05/14 01:58:15;;;;;;;14.55;12.52;;;;;;;12.72;97.35;101683.22;4883844;29;20029;-90
2023/05/14 02:00:40;;;;;;;17.23;12.83;;;;;;;12.78;97.97;101687.88;4882376;29;20029;-82
2023/05/14 02:03:08;;;;;;;21.23;13.37;;;;;;;12.75;97.38;101685.53;4899759;29;20140;-81
2023/05/14 02:05:33;;;;;;;19.02;13.23;;;;;;;12.73;98.19;101682.19;4867752;29;20037;-82
2023/05/14 02:07:58;;;;;;;20.13;13.13;;;;;;;12.72;98.29;101676.97;4899761;29;20040;-81
2023/05/14 02:10:24;;;;;;;18.90;13.57;;;;;;;12.71;98.58;101684.31;4899686;29;20508;-81
2023/05/14 02:12:49;;;;;;;22.30;13.43;;;;;;;12.63;98.34;101684.50;4899688;29;20045;-81
2023/05/14 02:15:15;;;;;;;16.10;13.13;;;;;;;12.61;98.85;101683.88;4852755;29;20088;-81
2023/05/14 02:17:40;;;;;;;20.95;12.68;;;;;;;12.59;98.68;101678.63;4882776;29;20473;-81
2023/05/14 02:20:06;;;;;;;18.17;12.97;;;;;;;12.58;98.30;101682.41;4899552;29;20040;-81
2023/05/14 02:22:31;;;;;;;14.93;13.15;;;;;;;12.58;98.08;101687.84;4882585;29;20127;-81
2023/05/14 02:24:57;;;;;;;20.27;13.57;;;;;;;12.59;98.73;101685.94;4867137;29;20541;-81
2023/05/14 02:27:22;;;;;;;17.50;13.23;;;;;;;12.63;99.61;101689.94;4851787;29;20048;-81
2023/05/14 02:29:47;;;;;;;19.97;13.53;;;;;;;12.66;99.09;101685.97;4882329;29;20064;-82
2023/05/14 02:32:13;;;;;;;18.03;13.47;;;;;;;12.67;98.44;101677.59;4882569;29;20501;-81
2023/05/14 02:34:38;;;;;;;27.53;14.90;;;;;;;12.72;98.47;101674.22;4882553;29;20036;-81
2023/05/14 02:37:04;;;;;;;19.57;13.57;;;;;;;12.73;98.04;101676.75;4882029;29;20478;-81
2023/05/14 02:39:29;;;;;;;19.00;13.53;;;;;;;12.75;97.87;101669.19;4899186;29;20293;-81
2023/05/14 02:41:55;;;;;;;19.07;13.90;;;;;;;12.77;98.22;101675.28;4866796;29;20065;-81
2023/05/14 02:44:20;;;;;;;19.43;14.03;;;;;;;12.78;98.38;101667.94;4866256;29;20088;-81
2023/05/14 02:46:46;;;;;;;18.35;13.75;;;;;;;12.78;98.07;101666.09;4867075;29;20045;-81
2023/05/14 02:49:12;;;;;;;18.00;13.57;;;;;;;12.80;98.37;101671.31;4882254;29;20470;-81
2023/05/14 02:51:37;;;;;;;17.30;13.75;;;;;;;12.79;98.69;101667.72;4882750;29;20036;-81
2023/05/14 02:54:02;;;;;;;16.80;13.43;;;;;;;12.74;97.83;101674.84;4882041;29;20040;-81
2023/05/14 02:56:28;;;;;;;21.53;13.30;;;;;;;12.72;98.64;101676.97;4851989;29;20036;-81
2023/05/14 02:58:53;;;;;;;21.40;13.87;;;;;;;12.67;98.70;101674.88;4881972;29;20405;-81
2023/05/14 03:01:19;;;;;;;18.27;13.70;;;;;;;12.67;98.81;101683.03;4866676;29;20028;-81
2023/05/14 03:03:44;;;;;;;18.23;13.80;;;;;;;12.64;98.82;101680.72;4866352;29;20132;-81
2023/05/14 03:06:10;;;;;;;22.90;14.20;;;;;;;12.58;99.41;101673.41;4867270;29;20032;-81
2023/05/14 03:08:35;;;;;;;22.47;15.17;;;;;;;12.54;99.86;101675.69;4866675;29;20437;-81
2023/05/14 03:11:01;;;;;;;20.67;14.97;;;;;;;12.50;100.00;101679.03;4867152;29;20422;-81
2023/05/14 03:13:26;;;;;;;20.20;15.07;;;;;;;12.46;100.00;101673.19;4882152;29;20032;-81
2023/05/14 03:15:55;;;;;;;22.47;15.57;;;;;;;12.41;100.00;101672.97;4882731;29;20068;-81
2023/05/14 03:18:21;;;;;;;19.70;15.27;;;;;;;12.33;100.00;101671.28;4898604;29;20029;-81
2023/05/14 03:20:46;;;;;;;23.33;16.30;;;;;;;12.24;100.00;101661.66;4866573;29;20040;-81
2023/05/14 03:23:12;;;;;;;27.77;16.00;;;;;;;12.20;100.00;101665.81;4882059;29;20508;-81
2023/05/14 03:25:37;;;;;;;21.00;16.27;;;;;;;12.16;100.00;101659.94;4850995;29;20085;-81
2023/05/14 03:28:03;;;;;;;25.10;14.97;;;;;;;12.11;100.00;101660.56;4851036;29;20064;-81
2023/05/14 03:30:28;;;;;;;19.83;15.57;;;;;;;12.06;100.00;101654.91;4851216;29;20031;-81
2023/05/14 03:32:53;;;;;;;22.47;16.37;;;;;;;12.00;100.00;101654.88;4882403;29;20363;-81
2023/05/14 03:35:19;;;;;;;21.37;15.57;;;;;;;11.95;100.00;101643.78;4850828;29;20533;-81
2023/05/14 03:37:44;;;;;;;20.40;16.53;;;;;;;11.88;100.00;101650.00;4881904;29;20120;-81
2023/05/14 03:40:10;;;;;;;22.88;16.63;;;;;;;11.82;100.00;101658.13;4898916;29;20347;-81
2023/05/14 03:42:35;;;;;;;24.27;16.50;;;;;;;11.74;100.00;101651.84;4866287;29;20477;-81
2023/05/14 03:45:03;;;;;;;25.77;17.13;;;;;;;11.69;100.00;101656.19;4850591;29;20511;-81
2023/05/14 03:47:29;;;;;;;22.45;16.38;;;;;;;11.64;100.00;101653.28;4866971;29;20037;-81
2023/05/14 03:49:55;;;;;;;20.43;16.53;;;;;;;11.58;100.00;101650.31;4866202;29;20489;-81
2023/05/14 03:52:21;;;;;;;25.20;17.35;;;;;;;11.53;100.00;101650.09;4881936;29;20035;-81
2023/05/14 03:54:46;;;;;;;22.87;16.60;;;;;;;11.50;100.00;101649.63;4865879;29;20052;-81
2023/05/14 03:57:12;;;;;;;27.30;17.95;;;;;;;11.43;100.00;101656.91;4884680;29;20064;-81
2023/05/14 03:59:37;;;;;;;28.87;16.97;;;;;;;11.39;100.00;101656.50;4854553;29;20032;-81
2023/05/14 04:02:02;;;;;;;24.30;17.43;;;;;;;11.34;100.00;101661.72;4885066;29;20473;-81
2023/05/14 04:04:28;;;;;;;30.13;17.20;;;;;;;11.32;100.00;101652.91;4885086;29;20149;-81
2023/05/14 04:06:53;;;;;;;24.93;17.83;;;;;;;11.30;100.00;101652.28;4901949;29;20040;-81
2023/05/14 04:09:19;;;;;;;26.80;18.17;;;;;;;11.27;100.00;101652.69;4870155;29;20438;-81
2023/05/14 04:11:44;;;;;;;24.45;18.23;;;;;;;11.24;100.00;101652.03;4854069;29;20127;-81
2023/05/14 04:14:10;;;;;;;24.03;17.93;;;;;;;11.21;100.00;101648.88;4870053;29;20037;-81
2023/05/14 04:16:35;;;;;;;28.63;18.63;;;;;;;11.19;100.00;101645.50;4901690;29;20071;-81
2023/05/14 04:19:03;;;;;;;29.33;17.53;;;;;;;11.18;100.00;101649.28;4884896;29;20402;-81
2023/05/14 04:21:28;;;;;;;25.33;18.23;;;;;;;11.16;100.00;101645.91;4869474;29;20037;-81
2023/05/14 04:23:54;;;;;;;27.90;17.93;;;;;;;11.16;100.00;101652.19;4885192;29;20029;-81
2023/05/14 04:26:20;;;;;;;29.70;17.73;;;;;;;11.15;100.00;101652.41;4869323;29;20378;-81
2023/05/14 04:28:45;;;;;;;26.23;17.97;;;;;;;11.16;100.00;101651.34;4901304;29;20108;-81
2023/05/14 04:31:14;;;;;;;26.73;17.65;;;;;;;11.13;100.00;101644.44;4868908;29;20200;-81
2023/05/14 04:33:40;;;;;;;26.97;17.97;;;;;;;11.15;100.00;101653.22;4877664;29;20037;-81
2023/05/14 04:36:06;;;;;;;28.35;17.85;;;;;;;11.16;100.00;101646.75;4869131;29;20037;-81
2023/05/14 04:38:31;;;;;;;28.70;17.87;;;;;;;11.15;100.00;101650.50;4868684;29;20036;-81
2023/05/14 04:40:57;;;;;;;27.52;18.13;;;;;;;11.17;100.00;101647.59;4901349;29;20043;-81
2023/05/14 04:43:22;;;;;;;23.73;17.37;;;;;;;11.18;100.00;101652.00;4884483;29;20043;-82
2023/05/14 04:45:48;;;;;;;25.23;18.30;;;;;;;11.21;100.00;101648.88;4868926;29;20033;-81
2023/05/14 04:48:13;;;;;;;29.50;18.27;;;;;;;11.23;100.00;101642.22;4868937;29;20071;-81
2023/05/14 04:50:38;;;;;;;22.10;17.17;;;;;;;11.27;100.00;101652.69;4884104;29;20071;-81
2023/05/14 04:53:04;;;;;;;25.23;18.10;;;;;;;11.28;100.00;101647.03;4901367;29;20392;-81
2023/05/14 04:55:29;;;;;;;29.23;17.53;;;;;;;11.28;100.00;101652.47;4868918;29;20043;-81
2023/05/14 04:57:55;;;;;;;26.20;17.92;;;;;;;11.33;100.00;101649.16;4868541;29;20127;-81
2023/05/14 05:00:20;;;;;;;30.50;18.13;;;;;;;11.38;100.00;101660.25;4901033;29;20028;-81
2023/05/14 05:02:46;;;;;;;24.90;17.10;;;;;;;11.40;100.00;101655.47;4883755;29;20521;-81
2023/05/14 05:05:12;;;;;;;26.17;17.90;;;;;;;11.43;100.00;101656.91;4884074;29;20048;-81
2023/05/14 05:07:37;;;;;;;35.07;17.97;;;;;;;11.45;100.00;101661.13;4883740;29;20164;-81
2023/05/14 05:10:03;;;;;;;27.00;17.30;;;;;;;11.48;100.00;101655.28;4884107;29;20063;-81
2023/05/14 05:12:29;;;;;;;29.35;17.65;;;;;;;11.50;100.00;101668.66;4884360;29;20394;-81
2023/05/14 05:14:57;;;;;;;24.17;16.67;;;;;;;11.50;100.00;101658.66;4884276;29;20123;-81
2023/05/14 05:17:23;;;;;;;20.85;16.42;;;;;;;11.54;100.00;101659.91;4868180;29;20036;-81
2023/05/14 05:19:49;;;;;;;24.13;16.85;;;;;;;11.56;100.00;101662.44;4853546;29;20029;-81
2023/05/14 05:22:14;;;;;;;24.03;16.47;;;;;;;11.60;100.00;101669.13;4900254;29;20552;-81
2023/05/14 05:24:40;;;;;;;23.42;16.35;;;;;;;11.63;100.00;101668.72;4900544;29;20033;-81
2023/05/14 05:27:05;;;;;;;26.17;16.13;;;;;;;11.66;100.00;101679.22;4868175;29;20039;-81
2023/05/14 05:29:31;;;;;;;24.53;15.70;;;;;;;11.70;100.00;101677.75;4883657;29;20124;-81
2023/05/14 05:31:56;;;;;;;24.13;16.50;;;;;;;11.79;100.00;101669.44;4868135;29;20080;-81
2023/05/14 05:34:22;;;;;;;24.17;17.13;;;;;;;11.83;100.00;101665.25;4868780;29;20042;-81
2023/05/14 05:36:47;;;;;;;23.10;16.10;;;;;;;11.89;100.00;101675.31;4883299;29;20398;-81
2023/05/14 05:39:12;;;;;;;21.87;15.93;;;;;;;11.90;100.00;101668.84;4868778;29;20092;-81
2023/05/14 05:41:38;;;;;;;23.48;15.95;;;;;;;11.92;100.00;101667.56;4868063;29;20497;-81
2023/05/14 05:44:03;;;;;;;29.47;16.57;;;;;;;12.00;100.00;101669.34;4883387;29;20092;-81
2023/05/14 05:46:29;;;;;;;25.07;15.73;;;;;;;12.04;100.00;101665.13;4868240;29;20037;-81
2023/05/14 05:48:54;;;;;;;26.37;15.93;;;;;;;12.06;100.00;101675.81;4867875;29;20096;-81
2023/05/14 05:51:20;;;;;;;23.93;15.00;;;;;;;12.15;100.00;101668.31;4852314;29;20085;-84
2023/05/14 05:53:45;;;;;;;22.93;15.27;;;;;;;12.26;100.00;101670.44;4867966;29;20273;-85
2023/05/14 05:56:11;;;;;;;23.80;14.77;;;;;;;12.31;100.00;101675.25;4883306;29;20123;-84
2023/05/14 05:58:37;;;;;;;25.53;15.37;;;;;;;12.36;100.00;101679.03;4867629;29;20033;-81
2023/05/14 06:01:02;;;;;;;26.07;15.13;;;;;;;12.39;100.00;101677.78;4899713;29;20348;-81
2023/05/14 06:03:28;;;;;;;22.08;14.95;;;;;;;12.43;100.00;101682.59;4867366;29;20462;-81
2023/05/14 06:05:53;;;;;;;27.33;14.83;;;;;;;12.50;100.00;101689.94;4867926;29;20064;-82
2023/05/14 06:08:18;;;;;;;20.97;14.50;;;;;;;12.57;100.00;101693.50;4867498;29;20107;-82
2023/05/14 06:10:45;;;;;;;21.97;14.43;;;;;;;12.62;100.00;101693.69;4899693;29;20036;-82
2023/05/14 06:13:10;;;;;;;21.77;14.88;;;;;;;12.65;100.00;101690.56;4852366;29;20033;-82
2023/05/14 06:15:36;;;;;;;25.73;14.97;;;;;;;12.71;100.00;101683.44;4882934;29;20370;-84
2023/05/14 06:18:01;;;;;;;25.00;14.88;;;;;;;12.78;100.00;101690.59;4882784;29;20028;-83
2023/05/14 06:20:27;;;;;;;24.30;14.53;;;;;;;12.81;100.00;101690.16;4866248;29;20135;-84
2023/05/14 06:22:52;;;;;;;20.00;14.13;;;;;;;12.89;100.00;101696.41;4899733;29;20079;-84
2023/05/14 06:25:18;;;;;;;20.90;13.77;;;;;;;12.94;100.00;101699.38;4882249;29;20036;-83
2023/05/14 06:27:44;;;;;;;23.67;14.47;;;;;;;12.98;100.00;101704.19;4867583;29;20128;-84
2023/05/14 06:30:10;;;;;;;24.15;14.60;;;;;;;13.04;100.00;101705.22;4883120;29;20394;-86
2023/05/14 06:32:35;;;;;;;22.67;14.17;;;;;;;13.15;99.96;101701.88;4851582;29;20045;-82
2023/05/14 06:35:01;;;;;;;19.17;13.95;;;;;;;13.29;99.68;101696.41;4852016;29;20394;-82
2023/05/14 06:37:26;;;;;;;22.97;14.53;;;;;;;13.42;99.32;101703.72;4866674;29;20125;-82
2023/05/14 06:39:52;;;;;;;24.50;14.00;;;;;;;13.47;98.00;101696.56;4867154;29;20131;-85
2023/05/14 06:42:17;;;;;;;19.83;13.63;;;;;;;13.60;97.20;101701.16;4882240;29;20024;-85
2023/05/14 06:44:44;;;;;;;26.43;14.20;;;;;;;13.77;97.30;101696.06;4898948;29;20742;-83
2023/05/14 06:47:09;;;;;;;21.35;13.15;;;;;;;13.97;96.20;101692.41;4882541;29;20040;-83
2023/05/14 06:49:35;;;;;;;23.77;13.50;;;;;;;14.09;95.91;101684.38;4882039;29;20469;-83
2023/05/14 06:52:04;;;;;;;21.03;13.90;;;;;;;14.21;94.23;101693.53;4898599;29;20045;-83
2023/05/14 06:54:29;;;;;;;20.42;14.23;;;;;;;14.35;94.41;101691.56;4882420;29;20032;-83
2023/05/14 06:56:55;;;;;;;23.95;13.95;;;;;;;14.38;92.42;101696.59;4866842;29;20450;-83
2023/05/14 06:59:20;;;;;;;19.77;12.93;;;;;;;14.43;91.92;101693.19;4898866;29;20036;-84
2023/05/14 07:01:46;;;;;;;20.33;14.20;;;;;;;14.40;91.59;101694.47;4898728;29;20042;-85
2023/05/14 07:04:11;;;;;;;28.60;13.43;;;;;;;14.38;91.56;101691.97;4882169;29;20072;-82
2023/05/14 07:06:37;;;;;;;22.07;13.60;;;;;;;14.41;90.84;101685.22;4866490;29;20072;-83
2023/05/14 07:09:03;;;;;;;22.03;13.83;;;;;;;14.60;90.84;101688.88;4898861;29;20036;-82
2023/05/14 07:11:29;;;;;;;21.67;13.80;;;;;;;14.78;89.77;101684.53;4866780;29;20044;-83
2023/05/14 07:13:54;;;;;;;21.40;12.73;;;;;;;14.90;88.46;101682.78;4866745;29;20048;-83
2023/05/14 07:16:20;;;;;;;21.53;12.37;;;;;;;15.07;88.67;101681.16;4882118;29;20443;-82
2023/05/14 07:18:45;;;;;;;16.63;12.43;;;;;;;15.16;87.77;101678.97;4851163;29;20036;-82
2023/05/14 07:21:11;;;;;;;21.77;13.50;;;;;;;15.23;87.87;101687.91;4882530;29;20052;-82
2023/05/14 07:23:40;;;;;;;18.80;13.23;;;;;;;15.41;87.83;101686.25;4898265;29;20561;-82
2023/05/14 07:26:06;;;;;;;21.88;13.40;;;;;;;15.25;87.51;101687.66;4882368;29;20044;-83
2023/05/14 07:28:32;;;;;;;18.73;13.63;;;;;;;15.31;87.84;101688.66;4866008;29;20093;-82
2023/05/14 07:30:57;;;;;;;17.83;13.50;;;;;;;15.34;87.79;101685.47;4884216;29;20041;-82
2023/05/14 07:33:23;;;;;;;20.27;12.50;;;;;;;15.39;87.35;101683.75;4872366;29;20044;-82
2023/05/14 07:35:49;;;;;;;23.75;13.15;;;;;;;15.36;87.47;101680.63;4872848;29;20033;-82
2023/05/14 07:38:15;;;;;;;22.13;12.13;;;;;;;15.35;85.09;101687.16;4905158;29;20033;-82
2023/05/14 07:40:41;;;;;;;19.63;13.60;;;;;;;15.30;86.03;101693.31;4872501;29;20040;-82
2023/05/14 07:43:06;;;;;;;20.37;13.00;;;;;;;15.27;85.36;101693.78;4887459;29;20032;-82
2023/05/14 07:45:32;;;;;;;22.30;13.80;;;;;;;15.21;86.88;101700.97;4856904;29;20048;-81
2023/05/14 07:47:57;;;;;;;18.85;12.63;;;;;;;15.23;86.87;101696.09;4856517;29;20040;-81
2023/05/14 07:50:22;;;;;;;20.17;12.67;;;;;;;15.25;85.67;101693.13;4872332;29;20041;-82
2023/05/14 07:52:48;;;;;;;18.90;12.67;;;;;;;15.34;86.54;101688.22;4872120;29;20116;-82
2023/05/14 07:55:13;;;;;;;19.53;13.07;;;;;;;15.49;86.50;101680.50;4887690;29;20047;-82
2023/05/14 07:57:39;;;;;;;21.73;13.23;;;;;;;15.61;85.88;101678.66;4887491;29;20033;-82
2023/05/14 08:00:08;;;;;;;21.98;14.30;;;;;;;15.66;85.05;101671.66;4887248;29;20032;-82
2023/05/14 08:02:34;;;;;;;19.58;12.18;;;;;;;15.70;83.46;101676.44;4904238;29;20128;-82
2023/05/14 08:04:59;;;;;;;16.50;12.00;;;;;;;15.71;82.03;101671.81;4887930;29;20123;-82
2023/05/14 08:07:26;;;;;;;18.63;12.47;;;;;;;15.76;82.65;101681.00;4855050;29;20134;-83
2023/05/14 08:09:52;;;;;;;19.60;12.98;;;;;;;15.84;81.84;101684.50;4871939;29;20032;-82
2023/05/14 08:12:17;;;;;;;20.10;12.53;;;;;;;15.92;81.27;101679.56;4887616;29;20048;-82
2023/05/14 08:14:42;;;;;;;18.90;12.70;;;;;;;15.98;80.84;101682.47;4888047;29;20525;-82
2023/05/14 08:17:08;;;;;;;19.53;13.27;;;;;;;16.04;81.95;101673.31;4871719;29;20128;-82
2023/05/14 08:19:33;;;;;;;17.33;12.00;;;;;;;16.14;80.93;101670.84;4871929;29;20047;-82
2023/05/14 08:21:59;;;;;;;19.60;11.90;;;;;;;16.23;80.96;101672.19;4887351;29;20047;-81
2023/05/14 08:24:24;;;;;;;23.90;11.80;;;;;;;16.42;80.06;101674.88;4887194;29;20044;-81
2023/05/14 08:26:50;;;;;;;16.43;11.97;;;;;;;16.59;78.97;101685.97;4887400;29;20329;-81
2023/05/14 08:29:15;;;;;;;16.27;11.13;;;;;;;16.66;78.08;101673.00;4871941;29;20033;-82
2023/05/14 08:31:41;;;;;;;17.67;11.40;;;;;;;16.78;77.42;101676.56;4887358;29;20032;-81
2023/05/14 08:34:06;;;;;;;15.45;11.60;;;;;;;16.83;77.22;101678.63;4904241;29;20037;-81
2023/05/14 08:36:31;;;;;;;17.10;12.10;;;;;;;16.84;76.74;101669.31;4903996;29;20129;-81
2023/05/14 08:38:57;;;;;;;17.63;12.00;;;;;;;16.89;76.93;101682.34;4887411;29;20114;-81
2023/05/14 08:41:22;;;;;;;17.07;11.93;;;;;;;16.97;78.28;101674.59;4887363;29;20048;-82
2023/05/14 08:44:11;;;;;;;22.70;11.65;;;;;;;17.01;76.93;101664.81;4868129;29;20033;-82
2023/05/14 08:46:37;;;;;;;19.20;11.57;;;;;;;17.08;75.24;101661.97;4884131;29;20040;-82
2023/05/14 08:49:27;;;;;;;15.68;12.20;;;;;;;17.21;77.71;101663.63;4869690;29;20040;-81
2023/05/14 08:51:53;;;;;;;18.20;11.30;;;;;;;17.26;73.95;101665.63;4900918;29;20056;-82
2023/05/14 08:54:21;;;;;;;16.10;10.50;;;;;;;17.26;71.74;101654.66;4868521;29;20520;-82
2023/05/14 08:56:47;;;;;;;16.95;10.77;;;;;;;17.24;72.49;101657.66;4885047;29;20039;-81
2023/05/14 08:59:12;;;;;;;17.60;10.70;;;;;;;17.23;72.28;101656.00;4901230;29;20032;-81
2023/05/14 09:01:38;;;;;;;15.03;10.80;;;;;;;17.33;72.67;101653.47;4900631;29;20024;-81
2023/05/14 09:04:07;;;;;;;16.83;10.70;;;;;;;17.42;71.68;101642.97;4901213;29;20072;-81
2023/05/14 09:06:35;;;;;;;13.40;10.00;;;;;;;17.52;72.18;101650.56;4884245;29;20033;-82
2023/05/14 09:09:01;;;;;;;16.92;10.27;;;;;;;17.71;70.85;101638.34;4883947;29;20029;-82
2023/05/14 09:11:26;;;;;;;13.18;10.95;;;;;;;17.82;69.53;101641.28;4852659;29;20688;-81
2023/05/14 09:13:52;;;;;;;13.03;9.60;;;;;;;17.94;69.01;101631.13;4868871;29;20032;-81
2023/05/14 09:16:19;;;;;;;15.10;9.50;;;;;;;18.09;66.84;101630.56;4884449;29;20036;-81
2023/05/14 09:18:44;;;;;;;15.02;10.13;;;;;;;18.32;67.56;101623.28;4900591;29;20080;-81
2023/05/14 09:21:13;;;;;;;15.93;10.80;;;;;;;18.44;67.04;101628.69;4900572;29;20037;-82
2023/05/14 09:23:41;;;;;;;15.05;10.35;;;;;;;18.51;68.53;101627.47;4883726;29;20035;-82
2023/05/14 09:26:06;;;;;;;13.70;9.85;;;;;;;18.62;69.75;101630.38;4900614;29;20035;-82
2023/05/14 09:28:32;;;;;;;12.40;10.00;;;;;;;18.64;69.67;101630.94;4868092;29;20032;-82
2023/05/14 09:30:57;;;;;;;18.57;10.23;;;;;;;18.74;70.41;101626.44;4900855;29;20036;-81
2023/05/14 09:33:27;;;;;;;14.60;9.77;;;;;;;18.85;71.30;101626.59;4883339;29;20108;-82
2023/05/14 09:36:01;;;;;;;15.40;10.55;;;;;;;18.82;68.20;101621.59;4900318;29;20382;-81
2023/05/14 09:38:31;;;;;;;13.23;9.35;;;;;;;18.91;68.45;101620.97;4883295;29;20490;-81
2023/05/14 09:40:58;;;;;;;12.68;10.00;;;;;;;19.04;68.03;101619.75;4883448;29;20035;-82
2023/05/14 09:43:23;;;;;;;15.00;9.70;;;;;;;19.03;66.88;101617.25;4900333;29;20037;-82
2023/05/14 09:45:49;;;;;;;15.30;9.82;;;;;;;19.16;68.37;101616.06;4883092;29;20041;-81
2023/05/14 09:48:15;;;;;;;16.27;10.33;;;;;;;19.24;68.00;101621.13;4900162;29;20029;-81
2023/05/14 09:50:44;;;;;;;27.17;9.60;;;;;;;19.31;68.62;101612.66;4883148;29;20370;-81
2023/05/14 09:53:10;;;;;;;14.30;8.63;;;;;;;19.47;66.24;101614.53;4900186;29;20088;-82
2023/05/14 09:55:37;;;;;;;12.80;8.63;;;;;;;19.73;65.77;101617.59;4883058;29;20033;-82
2023/05/14 09:58:06;;;;;;;17.13;8.82;;;;;;;19.87;63.64;101613.38;4867288;29;20037;-82
2023/05/14 10:00:32;;;;;;;11.48;8.10;;;;;;;20.08;63.90;101602.56;4899517;29;20037;-82
2023/05/14 10:03:00;;;;;;;11.00;7.97;;;;;;;20.25;61.92;101606.00;4882848;29;20119;-82
2023/05/14 10:05:27;;;;;;;13.70;7.82;;;;;;;20.43;60.42;101601.19;4899800;29;20075;-83
2023/05/14 10:07:58;;;;;;;13.07;8.63;;;;;;;20.61;61.51;101608.22;4867449;29;20033;-85
2023/05/14 10:10:29;;;;;;;11.85;7.50;;;;;;;20.71;59.92;101599.22;4883176;29;20131;-84
2023/05/14 10:13:05;;;;;;;12.57;8.23;;;;;;;20.82;59.68;101601.78;4883926;29;20042;-84
2023/05/14 10:15:41;;;;;;;8.43;7.10;;;;;;;20.96;56.12;101601.31;4882270;29;20033;-83
2023/05/14 10:18:15;;;;;;;11.30;7.57;;;;;;;21.11;55.04;101606.06;4882957;29;20401;-83
2023/05/14 10:20:41;;;;;;;9.73;7.07;;;;;;;21.20;55.15;101612.75;4899829;29;20032;-83
2023/05/14 10:23:07;;;;;;;9.45;7.32;;;;;;;21.41;56.50;101599.03;4899417;29;20045;-83
2023/05/14 10:25:34;;;;;;;12.67;7.33;;;;;;;21.52;54.47;101596.06;4851452;29;20036;-83
2023/05/14 10:28:01;;;;;;;9.82;6.70;;;;;;;21.83;53.10;101590.59;4867079;29;20033;-83
2023/05/14 10:30:30;;;;;;;10.25;7.57;;;;;;;22.08;55.24;101592.56;4851573;29;20092;-83
2023/05/14 10:33:11;;;;;;;12.57;7.30;;;;;;;22.17;53.09;101590.09;4899648;29;20485;-83
2023/05/14 10:36:01;;;;;;;9.27;6.40;;;;;;;22.23;52.35;101591.78;4867002;29;20040;-83
2023/05/14 10:38:38;;;;;;;10.93;6.80;;;;;;;22.46;52.62;101591.53;4882507;29;20043;-83
2023/05/14 10:41:13;;;;;;;11.57;7.43;;;;;;;22.56;51.29;101589.56;4866951;29;20064;-83
2023/05/14 10:43:40;;;;;;;13.38;7.72;;;;;;;22.67;48.97;101589.56;4881978;29;20048;-83
2023/05/14 10:46:07;;;;;;;10.32;6.53;;;;;;;22.89;49.35;101578.97;4882432;29;20499;-83
2023/05/14 10:48:33;;;;;;;8.80;5.70;;;;;;;23.32;47.82;101577.75;4882136;29;20039;-83
2023/05/14 10:51:00;;;;;;;11.07;6.07;;;;;;;23.56;46.90;101575.97;4881916;29;20036;-83
2023/05/14 10:53:38;;;;;;;13.35;6.25;;;;;;;23.73;46.68;101581.13;4898907;29;20056;-83
2023/05/14 10:56:11;;;;;;;10.02;6.63;;;;;;;23.99;46.23;101567.97;4882837;29;20039;-83
2023/05/14 10:58:41;;;;;;;8.63;6.50;;;;;;;24.28;46.61;101567.16;4882212;29;20045;-83
2023/05/14 11:01:09;;;;;;;11.45;7.60;;;;;;;24.44;45.24;101567.84;4898444;29;20161;-84
2023/05/14 11:03:45;;;;;;;13.03;7.67;;;;;;;24.76;46.04;101565.59;4898555;29;20052;-83
2023/05/14 11:06:13;;;;;;;10.82;7.18;;;;;;;25.06;43.95;101560.84;4881602;29;20388;-83
2023/05/14 11:08:40;;;;;;;6.88;5.50;;;;;;;25.15;42.15;101564.63;4881900;29;20029;-83
2023/05/14 11:11:07;;;;;;;9.88;5.40;;;;;;;25.38;39.31;101557.41;4898415;29;20037;-83
2023/05/14 11:13:33;;;;;;;11.95;5.25;;;;;;;26.00;39.58;101556.50;4866533;29;20127;-84
2023/05/14 11:16:00;;;;;;;7.07;5.00;;;;;;;27.75;36.44;101558.66;4882101;29;20176;-83
2023/05/14 11:18:27;;;;;;;11.02;5.28;;;;;;;30.49;31.65;101552.38;4898534;29;20040;-83
2023/05/14 11:20:56;;;;;;;6.88;5.15;;;;;;;32.78;27.53;101544.69;4882084;29;20044;-83